sensor_id;sensor_type;location;lat;lon;timestamp;P1;durP1;ratioP1;P2;durP2;ratioP2
75005;SDS011;63553;51.814;4.600;2024-02-14T00:00:06;2.85;;;2.00;;
75005;SDS011;63553;51.814;4.600;2024-02-14T00:02:44;4.20;;;2.38;;
75005;SDS011;63553;51.814;4.600;2024-02-14T00:05:14;3.72;;;2.00;;
75005;SDS011;63553;51.814;4.600;2024-02-14T00:07:39;3.75;;;2.22;;
75005;SDS011;63553;51.814;4.600;2024-02-14T00:10:05;7.38;;;2.72;;
75005;SDS011;63553;51.814;4.600;2024-02-14T00:12:31;2.55;;;2.30;;
75005;SDS011;63553;51.814;4.600;2024-02-14T00:15:00;3.22;;;2.10;;
75005;SDS011;63553;51.814;4.600;2024-02-14T00:19:56;2.30;;;2.10;;
75005;SDS011;63553;51.814;4.600;2024-02-14T00:22:21;5.05;;;2.35;;
75005;SDS011;63553;51.814;4.600;2024-02-14T00:24:47;2.63;;;2.33;;
75005;SDS011;63553;51.814;4.600;2024-02-14T00:27:12;3.05;;;2.60;;
75005;SDS011;63553;51.814;4.600;2024-02-14T00:29:39;3.97;;;2.45;;
75005;SDS011;63553;51.814;4.600;2024-02-14T00:32:05;5.93;;;2.35;;
75005;SDS011;63553;51.814;4.600;2024-02-14T00:34:30;6.00;;;2.45;;
75005;SDS011;63553;51.814;4.600;2024-02-14T00:36:56;4.82;;;2.63;;
75005;SDS011;63553;51.814;4.600;2024-02-14T00:39:21;2.27;;;1.93;;
75005;SDS011;63553;51.814;4.600;2024-02-14T00:41:46;4.00;;;2.33;;
75005;SDS011;63553;51.814;4.600;2024-02-14T00:44:12;3.75;;;2.45;;
75005;SDS011;63553;51.814;4.600;2024-02-14T00:46:40;4.03;;;2.53;;
75005;SDS011;63553;51.814;4.600;2024-02-14T00:49:05;3.43;;;1.87;;
75005;SDS011;63553;51.814;4.600;2024-02-14T00:51:31;4.37;;;2.20;;
75005;SDS011;63553;51.814;4.600;2024-02-14T00:53:56;2.40;;;2.17;;
75005;SDS011;63553;51.814;4.600;2024-02-14T00:56:21;4.93;;;2.40;;
75005;SDS011;63553;51.814;4.600;2024-02-14T00:58:48;2.97;;;2.38;;
75005;SDS011;63553;51.814;4.600;2024-02-14T01:01:14;2.63;;;2.10;;
75005;SDS011;63553;51.814;4.600;2024-02-14T01:03:39;2.53;;;2.03;;
75005;SDS011;63553;51.814;4.600;2024-02-14T01:06:05;4.05;;;2.20;;
75005;SDS011;63553;51.814;4.600;2024-02-14T01:08:30;2.70;;;2.27;;
75005;SDS011;63553;51.814;4.600;2024-02-14T01:10:55;3.80;;;2.30;;
75005;SDS011;63553;51.814;4.600;2024-02-14T01:13:21;2.67;;;2.20;;
75005;SDS011;63553;51.814;4.600;2024-02-14T01:15:47;2.63;;;2.33;;
75005;SDS011;63553;51.814;4.600;2024-02-14T01:18:12;4.83;;;2.30;;
75005;SDS011;63553;51.814;4.600;2024-02-14T01:20:37;2.57;;;2.10;;
75005;SDS011;63553;51.814;4.600;2024-02-14T01:23:03;2.50;;;2.10;;
75005;SDS011;63553;51.814;4.600;2024-02-14T01:25:30;2.35;;;1.92;;
75005;SDS011;63553;51.814;4.600;2024-02-14T01:27:55;4.70;;;2.20;;
75005;SDS011;63553;51.814;4.600;2024-02-14T01:30:21;2.80;;;2.35;;
75005;SDS011;63553;51.814;4.600;2024-02-14T01:32:46;3.00;;;2.10;;
75005;SDS011;63553;51.814;4.600;2024-02-14T01:35:11;2.20;;;2.07;;
75005;SDS011;63553;51.814;4.600;2024-02-14T01:37:37;2.08;;;1.88;;
75005;SDS011;63553;51.814;4.600;2024-02-14T01:40:03;3.27;;;2.60;;
75005;SDS011;63553;51.814;4.600;2024-02-14T01:42:29;2.83;;;2.20;;
75005;SDS011;63553;51.814;4.600;2024-02-14T01:44:54;2.83;;;2.07;;
75005;SDS011;63553;51.814;4.600;2024-02-14T01:47:19;2.53;;;1.70;;
75005;SDS011;63553;51.814;4.600;2024-02-14T01:49:45;2.72;;;2.03;;
75005;SDS011;63553;51.814;4.600;2024-02-14T01:52:12;2.30;;;2.10;;
75005;SDS011;63553;51.814;4.600;2024-02-14T01:54:38;3.25;;;2.25;;
75005;SDS011;63553;51.814;4.600;2024-02-14T01:57:04;2.42;;;2.22;;
75005;SDS011;63553;51.814;4.600;2024-02-14T01:59:30;3.30;;;2.20;;
75005;SDS011;63553;51.814;4.600;2024-02-14T02:01:59;3.80;;;2.03;;
75005;SDS011;63553;51.814;4.600;2024-02-14T02:04:25;3.03;;;2.40;;
75005;SDS011;63553;51.814;4.600;2024-02-14T02:06:50;2.92;;;2.08;;
75005;SDS011;63553;51.814;4.600;2024-02-14T02:09:16;2.28;;;1.90;;
75005;SDS011;63553;51.814;4.600;2024-02-14T02:11:42;4.32;;;2.13;;
75005;SDS011;63553;51.814;4.600;2024-02-14T02:14:14;5.00;;;2.25;;
75005;SDS011;63553;51.814;4.600;2024-02-14T02:16:41;2.78;;;1.98;;
75005;SDS011;63553;51.814;4.600;2024-02-14T02:19:06;2.33;;;2.13;;
75005;SDS011;63553;51.814;4.600;2024-02-14T02:21:34;2.60;;;2.30;;
75005;SDS011;63553;51.814;4.600;2024-02-14T02:24:00;2.33;;;2.13;;
75005;SDS011;63553;51.814;4.600;2024-02-14T02:26:26;2.70;;;2.50;;
75005;SDS011;63553;51.814;4.600;2024-02-14T02:28:52;2.28;;;1.90;;
75005;SDS011;63553;51.814;4.600;2024-02-14T02:31:17;2.33;;;2.13;;
75005;SDS011;63553;51.814;4.600;2024-02-14T02:33:43;3.38;;;2.20;;
75005;SDS011;63553;51.814;4.600;2024-02-14T02:36:08;9.80;;;2.60;;
75005;SDS011;63553;51.814;4.600;2024-02-14T02:38:34;3.63;;;2.40;;
75005;SDS011;63553;51.814;4.600;2024-02-14T02:41:01;2.22;;;2.03;;
75005;SDS011;63553;51.814;4.600;2024-02-14T02:43:28;2.15;;;1.85;;
75005;SDS011;63553;51.814;4.600;2024-02-14T02:45:53;2.65;;;1.98;;
75005;SDS011;63553;51.814;4.600;2024-02-14T02:48:19;2.10;;;1.90;;
75005;SDS011;63553;51.814;4.600;2024-02-14T02:50:48;3.72;;;1.85;;
75005;SDS011;63553;51.814;4.600;2024-02-14T02:53:14;3.13;;;2.38;;
75005;SDS011;63553;51.814;4.600;2024-02-14T02:55:40;3.58;;;2.22;;
75005;SDS011;63553;51.814;4.600;2024-02-14T02:58:06;4.47;;;2.38;;
75005;SDS011;63553;51.814;4.600;2024-02-14T03:00:32;3.95;;;2.38;;
75005;SDS011;63553;51.814;4.600;2024-02-14T03:02:58;4.25;;;2.50;;
75005;SDS011;63553;51.814;4.600;2024-02-14T03:05:23;4.90;;;2.10;;
75005;SDS011;63553;51.814;4.600;2024-02-14T03:07:49;4.90;;;2.13;;
75005;SDS011;63553;51.814;4.600;2024-02-14T03:10:16;5.75;;;2.17;;
75005;SDS011;63553;51.814;4.600;2024-02-14T03:15:12;5.95;;;2.67;;
75005;SDS011;63553;51.814;4.600;2024-02-14T03:17:38;3.05;;;2.30;;
75005;SDS011;63553;51.814;4.600;2024-02-14T03:20:04;4.20;;;2.20;;
75005;SDS011;63553;51.814;4.600;2024-02-14T03:22:35;2.67;;;1.98;;
75005;SDS011;63553;51.814;4.600;2024-02-14T03:25:01;2.42;;;2.20;;
75005;SDS011;63553;51.814;4.600;2024-02-14T03:27:26;5.00;;;2.53;;
75005;SDS011;63553;51.814;4.600;2024-02-14T03:29:51;4.72;;;2.30;;
75005;SDS011;63553;51.814;4.600;2024-02-14T03:32:17;3.17;;;1.98;;
75005;SDS011;63553;51.814;4.600;2024-02-14T03:34:42;2.72;;;1.98;;
75005;SDS011;63553;51.814;4.600;2024-02-14T03:37:08;3.83;;;2.15;;
75005;SDS011;63553;51.814;4.600;2024-02-14T03:39:33;2.42;;;2.15;;
75005;SDS011;63553;51.814;4.600;2024-02-14T03:41:59;2.40;;;1.80;;
75005;SDS011;63553;51.814;4.600;2024-02-14T03:44:27;3.90;;;2.08;;
75005;SDS011;63553;51.814;4.600;2024-02-14T03:46:53;2.50;;;2.10;;
75005;SDS011;63553;51.814;4.600;2024-02-14T03:49:18;3.35;;;2.17;;
75005;SDS011;63553;51.814;4.600;2024-02-14T03:51:44;2.58;;;1.80;;
75005;SDS011;63553;51.814;4.600;2024-02-14T03:54:10;2.45;;;1.92;;
75005;SDS011;63553;51.814;4.600;2024-02-14T03:56:36;2.38;;;2.05;;
75005;SDS011;63553;51.814;4.600;2024-02-14T03:59:02;3.28;;;1.88;;
75005;SDS011;63553;51.814;4.600;2024-02-14T04:01:30;2.08;;;1.88;;
75005;SDS011;63553;51.814;4.600;2024-02-14T04:03:56;4.70;;;2.00;;
75005;SDS011;63553;51.814;4.600;2024-02-14T04:06:21;2.80;;;1.83;;
75005;SDS011;63553;51.814;4.600;2024-02-14T04:08:47;3.05;;;1.60;;
75005;SDS011;63553;51.814;4.600;2024-02-14T04:11:12;2.95;;;1.90;;
75005;SDS011;63553;51.814;4.600;2024-02-14T04:13:39;2.17;;;1.77;;
75005;SDS011;63553;51.814;4.600;2024-02-14T04:16:05;2.97;;;1.90;;
75005;SDS011;63553;51.814;4.600;2024-02-14T04:18:30;2.40;;;2.10;;
75005;SDS011;63553;51.814;4.600;2024-02-14T04:20:56;3.80;;;1.83;;
75005;SDS011;63553;51.814;4.600;2024-02-14T04:23:21;2.28;;;1.77;;
75005;SDS011;63553;51.814;4.600;2024-02-14T04:25:47;4.47;;;1.90;;
75005;SDS011;63553;51.814;4.600;2024-02-14T04:28:13;2.28;;;1.80;;
75005;SDS011;63553;51.814;4.600;2024-02-14T04:30:38;2.00;;;1.80;;
75005;SDS011;63553;51.814;4.600;2024-02-14T04:33:04;1.60;;;1.50;;
75005;SDS011;63553;51.814;4.600;2024-02-14T04:35:31;1.98;;;1.70;;
75005;SDS011;63553;51.814;4.600;2024-02-14T04:37:56;1.80;;;1.70;;
75005;SDS011;63553;51.814;4.600;2024-02-14T04:40:22;2.50;;;1.70;;
75005;SDS011;63553;51.814;4.600;2024-02-14T04:42:47;1.88;;;1.67;;
75005;SDS011;63553;51.814;4.600;2024-02-14T04:45:13;2.15;;;1.55;;
75005;SDS011;63553;51.814;4.600;2024-02-14T04:47:38;1.90;;;1.65;;
75005;SDS011;63553;51.814;4.600;2024-02-14T04:50:04;3.33;;;1.98;;
75005;SDS011;63553;51.814;4.600;2024-02-14T04:52:30;2.50;;;1.77;;
75005;SDS011;63553;51.814;4.600;2024-02-14T04:54:55;1.80;;;1.63;;
75005;SDS011;63553;51.814;4.600;2024-02-14T04:57:21;1.73;;;1.33;;
75005;SDS011;63553;51.814;4.600;2024-02-14T04:59:47;2.80;;;1.85;;
75005;SDS011;63553;51.814;4.600;2024-02-14T05:02:12;2.55;;;1.58;;
75005;SDS011;63553;51.814;4.600;2024-02-14T05:04:37;2.20;;;1.50;;
75005;SDS011;63553;51.814;4.600;2024-02-14T05:07:04;2.30;;;2.10;;
75005;SDS011;63553;51.814;4.600;2024-02-14T05:09:29;2.22;;;1.52;;
75005;SDS011;63553;51.814;4.600;2024-02-14T05:11:55;7.27;;;1.70;;
75005;SDS011;63553;51.814;4.600;2024-02-14T05:14:20;1.80;;;1.63;;
75005;SDS011;63553;51.814;4.600;2024-02-14T05:16:46;3.75;;;1.70;;
75005;SDS011;63553;51.814;4.600;2024-02-14T05:19:11;4.32;;;1.65;;
75005;SDS011;63553;51.814;4.600;2024-02-14T05:21:36;2.83;;;1.83;;
75005;SDS011;63553;51.814;4.600;2024-02-14T05:24:03;11.93;;;1.73;;
75005;SDS011;63553;51.814;4.600;2024-02-14T05:26:29;1.92;;;1.73;;
75005;SDS011;63553;51.814;4.600;2024-02-14T05:28:54;142.15;;;31.02;;
75005;SDS011;63553;51.814;4.600;2024-02-14T05:31:19;73.53;;;24.03;;
75005;SDS011;63553;51.814;4.600;2024-02-14T05:33:45;37.07;;;13.40;;
75005;SDS011;63553;51.814;4.600;2024-02-14T05:36:10;21.27;;;9.50;;
75005;SDS011;63553;51.814;4.600;2024-02-14T05:38:35;16.92;;;6.70;;
75005;SDS011;63553;51.814;4.600;2024-02-14T05:41:01;11.30;;;4.60;;
75005;SDS011;63553;51.814;4.600;2024-02-14T05:43:26;10.02;;;3.67;;
75005;SDS011;63553;51.814;4.600;2024-02-14T05:45:52;5.05;;;2.95;;
75005;SDS011;63553;51.814;4.600;2024-02-14T05:48:17;7.70;;;2.63;;
75005;SDS011;63553;51.814;4.600;2024-02-14T05:50:42;8.07;;;2.73;;
75005;SDS011;63553;51.814;4.600;2024-02-14T05:53:08;5.07;;;2.35;;
75005;SDS011;63553;51.814;4.600;2024-02-14T05:55:33;4.80;;;2.22;;
75005;SDS011;63553;51.814;4.600;2024-02-14T05:57:59;3.58;;;2.15;;
75005;SDS011;63553;51.814;4.600;2024-02-14T06:00:25;6.25;;;2.35;;
75005;SDS011;63553;51.814;4.600;2024-02-14T06:02:50;3.35;;;2.30;;
75005;SDS011;63553;51.814;4.600;2024-02-14T06:05:16;4.07;;;2.20;;
75005;SDS011;63553;51.814;4.600;2024-02-14T06:07:42;4.47;;;2.10;;
75005;SDS011;63553;51.814;4.600;2024-02-14T06:10:10;4.95;;;2.42;;
75005;SDS011;63553;51.814;4.600;2024-02-14T06:12:36;2.33;;;1.83;;
75005;SDS011;63553;51.814;4.600;2024-02-14T06:15:01;3.47;;;2.17;;
75005;SDS011;63553;51.814;4.600;2024-02-14T06:17:27;2.22;;;1.83;;
75005;SDS011;63553;51.814;4.600;2024-02-14T06:19:53;3.88;;;1.75;;
75005;SDS011;63553;51.814;4.600;2024-02-14T06:22:18;3.42;;;2.00;;
75005;SDS011;63553;51.814;4.600;2024-02-14T06:24:45;3.00;;;1.75;;
75005;SDS011;63553;51.814;4.600;2024-02-14T06:27:16;3.75;;;2.03;;
75005;SDS011;63553;51.814;4.600;2024-02-14T06:29:42;2.70;;;1.80;;
75005;SDS011;63553;51.814;4.600;2024-02-14T06:32:07;2.70;;;1.90;;
75005;SDS011;63553;51.814;4.600;2024-02-14T06:34:33;4.28;;;2.30;;
75005;SDS011;63553;51.814;4.600;2024-02-14T06:36:58;2.13;;;1.50;;
75005;SDS011;63553;51.814;4.600;2024-02-14T06:39:23;2.05;;;1.83;;
75005;SDS011;63553;51.814;4.600;2024-02-14T06:41:49;3.20;;;1.60;;
75005;SDS011;63553;51.814;4.600;2024-02-14T06:44:14;2.70;;;1.60;;
75005;SDS011;63553;51.814;4.600;2024-02-14T06:46:39;2.90;;;1.70;;
75005;SDS011;63553;51.814;4.600;2024-02-14T06:49:06;1.70;;;1.60;;
75005;SDS011;63553;51.814;4.600;2024-02-14T06:51:32;2.90;;;1.80;;
75005;SDS011;63553;51.814;4.600;2024-02-14T06:53:58;5.03;;;1.95;;
75005;SDS011;63553;51.814;4.600;2024-02-14T06:56:23;3.33;;;1.80;;
75005;SDS011;63553;51.814;4.600;2024-02-14T06:58:48;2.87;;;1.70;;
75005;SDS011;63553;51.814;4.600;2024-02-14T07:03:48;2.47;;;1.63;;
75005;SDS011;63553;51.814;4.600;2024-02-14T07:06:13;3.17;;;1.50;;
75005;SDS011;63553;51.814;4.600;2024-02-14T07:08:42;2.75;;;1.40;;
75005;SDS011;63553;51.814;4.600;2024-02-14T07:11:08;1.63;;;1.50;;
75005;SDS011;63553;51.814;4.600;2024-02-14T07:13:33;1.88;;;1.58;;
75005;SDS011;63553;51.814;4.600;2024-02-14T07:15:59;2.08;;;1.48;;
75005;SDS011;63553;51.814;4.600;2024-02-14T07:18:25;1.80;;;1.70;;
75005;SDS011;63553;51.814;4.600;2024-02-14T07:20:50;2.27;;;1.63;;
75005;SDS011;63553;51.814;4.600;2024-02-14T07:23:15;2.67;;;2.08;;
75005;SDS011;63553;51.814;4.600;2024-02-14T07:25:42;1.52;;;1.42;;
75005;SDS011;63553;51.814;4.600;2024-02-14T07:28:08;2.15;;;1.60;;
75005;SDS011;63553;51.814;4.600;2024-02-14T07:30:33;3.47;;;1.42;;
75005;SDS011;63553;51.814;4.600;2024-02-14T07:32:59;2.40;;;1.77;;
75005;SDS011;63553;51.814;4.600;2024-02-14T07:35:24;1.70;;;1.60;;
75005;SDS011;63553;51.814;4.600;2024-02-14T07:37:50;1.98;;;1.63;;
75005;SDS011;63553;51.814;4.600;2024-02-14T07:40:16;2.43;;;1.60;;
75005;SDS011;63553;51.814;4.600;2024-02-14T07:42:41;2.43;;;1.60;;
75005;SDS011;63553;51.814;4.600;2024-02-14T07:45:06;3.17;;;1.67;;
75005;SDS011;63553;51.814;4.600;2024-02-14T07:47:32;2.50;;;1.73;;
75005;SDS011;63553;51.814;4.600;2024-02-14T07:49:57;1.70;;;1.60;;
75005;SDS011;63553;51.814;4.600;2024-02-14T07:52:23;1.70;;;1.60;;
75005;SDS011;63553;51.814;4.600;2024-02-14T07:54:52;2.17;;;1.80;;
75005;SDS011;63553;51.814;4.600;2024-02-14T07:57:18;1.70;;;1.60;;
75005;SDS011;63553;51.814;4.600;2024-02-14T07:59:44;3.15;;;1.70;;
75005;SDS011;63553;51.814;4.600;2024-02-14T08:02:09;1.93;;;1.70;;
75005;SDS011;63553;51.814;4.600;2024-02-14T08:04:35;1.67;;;1.60;;
75005;SDS011;63553;51.814;4.600;2024-02-14T08:07:00;1.50;;;1.40;;
75005;SDS011;63553;51.814;4.600;2024-02-14T08:09:25;2.17;;;1.70;;
75005;SDS011;63553;51.814;4.600;2024-02-14T08:11:51;2.10;;;1.60;;
75005;SDS011;63553;51.814;4.600;2024-02-14T08:14:18;1.63;;;1.52;;
75005;SDS011;63553;51.814;4.600;2024-02-14T08:16:43;2.15;;;1.70;;
75005;SDS011;63553;51.814;4.600;2024-02-14T08:19:09;1.75;;;1.65;;
75005;SDS011;63553;51.814;4.600;2024-02-14T08:21:34;3.28;;;1.50;;
75005;SDS011;63553;51.814;4.600;2024-02-14T08:24:01;1.60;;;1.50;;
75005;SDS011;63553;51.814;4.600;2024-02-14T08:26:26;1.77;;;1.67;;
75005;SDS011;63553;51.814;4.600;2024-02-14T08:28:52;2.72;;;1.55;;
75005;SDS011;63553;51.814;4.600;2024-02-14T08:31:17;3.73;;;1.60;;
75005;SDS011;63553;51.814;4.600;2024-02-14T08:33:42;1.50;;;1.40;;
75005;SDS011;63553;51.814;4.600;2024-02-14T08:36:08;3.00;;;1.47;;
75005;SDS011;63553;51.814;4.600;2024-02-14T08:38:33;1.58;;;1.45;;
75005;SDS011;63553;51.814;4.600;2024-02-14T08:41:02;1.75;;;1.58;;
75005;SDS011;63553;51.814;4.600;2024-02-14T08:43:28;1.60;;;1.50;;
75005;SDS011;63553;51.814;4.600;2024-02-14T08:45:54;1.40;;;1.30;;
75005;SDS011;63553;51.814;4.600;2024-02-14T08:48:20;1.52;;;1.42;;
75005;SDS011;63553;51.814;4.600;2024-02-14T08:50:46;2.63;;;1.42;;
75005;SDS011;63553;51.814;4.600;2024-02-14T08:53:11;1.77;;;1.52;;
75005;SDS011;63553;51.814;4.600;2024-02-14T08:55:38;2.20;;;1.50;;
75005;SDS011;63553;51.814;4.600;2024-02-14T08:58:05;1.50;;;1.40;;
75005;SDS011;63553;51.814;4.600;2024-02-14T09:00:30;2.25;;;1.45;;
75005;SDS011;63553;51.814;4.600;2024-02-14T09:02:56;1.88;;;1.40;;
75005;SDS011;63553;51.814;4.600;2024-02-14T09:05:21;1.83;;;1.73;;
75005;SDS011;63553;51.814;4.600;2024-02-14T09:07:47;2.72;;;1.30;;
75005;SDS011;63553;51.814;4.600;2024-02-14T09:10:13;3.05;;;1.45;;
75005;SDS011;63553;51.814;4.600;2024-02-14T09:12:39;1.30;;;1.20;;
75005;SDS011;63553;51.814;4.600;2024-02-14T09:15:06;2.22;;;1.35;;
75005;SDS011;63553;51.814;4.600;2024-02-14T09:17:32;2.10;;;1.48;;
75005;SDS011;63553;51.814;4.600;2024-02-14T09:19:57;2.25;;;1.40;;
75005;SDS011;63553;51.814;4.600;2024-02-14T09:22:22;1.60;;;1.50;;
75005;SDS011;63553;51.814;4.600;2024-02-14T09:24:48;2.07;;;1.60;;
75005;SDS011;63553;51.814;4.600;2024-02-14T09:27:14;3.10;;;1.70;;
75005;SDS011;63553;51.814;4.600;2024-02-14T09:29:40;1.52;;;1.42;;
75005;SDS011;63553;51.814;4.600;2024-02-14T09:32:05;1.53;;;1.40;;
75005;SDS011;63553;51.814;4.600;2024-02-14T09:34:31;1.63;;;1.38;;
75005;SDS011;63553;51.814;4.600;2024-02-14T09:36:56;1.50;;;1.40;;
75005;SDS011;63553;51.814;4.600;2024-02-14T09:39:23;1.50;;;1.40;;
75005;SDS011;63553;51.814;4.600;2024-02-14T09:41:53;1.48;;;1.40;;
75005;SDS011;63553;51.814;4.600;2024-02-14T09:44:22;2.25;;;1.45;;
75005;SDS011;63553;51.814;4.600;2024-02-14T09:46:49;1.30;;;1.20;;
75005;SDS011;63553;51.814;4.600;2024-02-14T09:49:15;1.70;;;1.40;;
75005;SDS011;63553;51.814;4.600;2024-02-14T09:51:42;2.78;;;1.20;;
75005;SDS011;63553;51.814;4.600;2024-02-14T09:54:09;1.65;;;1.40;;
75005;SDS011;63553;51.814;4.600;2024-02-14T09:56:35;1.60;;;1.50;;
75005;SDS011;63553;51.814;4.600;2024-02-14T09:59:01;1.52;;;1.27;;
75005;SDS011;63553;51.814;4.600;2024-02-14T10:01:28;2.58;;;1.48;;
75005;SDS011;63553;51.814;4.600;2024-02-14T10:03:54;1.40;;;1.30;;
75005;SDS011;63553;51.814;4.600;2024-02-14T10:06:20;1.63;;;1.50;;
75005;SDS011;63553;51.814;4.600;2024-02-14T10:08:49;1.20;;;1.10;;
75005;SDS011;63553;51.814;4.600;2024-02-14T10:11:15;1.50;;;1.40;;
75005;SDS011;63553;51.814;4.600;2024-02-14T10:13:44;1.80;;;1.52;;
75005;SDS011;63553;51.814;4.600;2024-02-14T10:16:11;1.40;;;1.30;;
75005;SDS011;63553;51.814;4.600;2024-02-14T10:18:37;3.08;;;1.52;;
75005;SDS011;63553;51.814;4.600;2024-02-14T10:21:04;2.97;;;1.52;;
75005;SDS011;63553;51.814;4.600;2024-02-14T10:23:29;1.27;;;1.20;;
75005;SDS011;63553;51.814;4.600;2024-02-14T10:25:55;1.17;;;1.17;;
75005;SDS011;63553;51.814;4.600;2024-02-14T10:28:21;1.40;;;1.30;;
75005;SDS011;63553;51.814;4.600;2024-02-14T10:30:47;1.40;;;1.40;;
75005;SDS011;63553;51.814;4.600;2024-02-14T10:33:17;2.63;;;1.35;;
75005;SDS011;63553;51.814;4.600;2024-02-14T10:35:44;1.48;;;1.38;;
75005;SDS011;63553;51.814;4.600;2024-02-14T10:38:10;2.63;;;1.23;;
75005;SDS011;63553;51.814;4.600;2024-02-14T10:40:36;2.40;;;1.30;;
75005;SDS011;63553;51.814;4.600;2024-02-14T10:43:06;1.67;;;1.40;;
75005;SDS011;63553;51.814;4.600;2024-02-14T10:45:34;1.27;;;1.23;;
75005;SDS011;63553;51.814;4.600;2024-02-14T10:48:00;2.70;;;1.42;;
75005;SDS011;63553;51.814;4.600;2024-02-14T10:50:26;1.35;;;1.25;;
75005;SDS011;63553;51.814;4.600;2024-02-14T10:52:54;1.10;;;1.10;;
75005;SDS011;63553;51.814;4.600;2024-02-14T10:55:23;1.40;;;1.30;;
75005;SDS011;63553;51.814;4.600;2024-02-14T10:57:51;1.40;;;1.30;;
75005;SDS011;63553;51.814;4.600;2024-02-14T11:00:19;1.33;;;1.33;;
75005;SDS011;63553;51.814;4.600;2024-02-14T11:02:45;1.17;;;1.17;;
75005;SDS011;63553;51.814;4.600;2024-02-14T11:05:15;1.50;;;1.40;;
75005;SDS011;63553;51.814;4.600;2024-02-14T11:07:44;1.65;;;1.30;;
75005;SDS011;63553;51.814;4.600;2024-02-14T11:12:38;1.60;;;1.50;;
75005;SDS011;63553;51.814;4.600;2024-02-14T11:15:09;1.42;;;1.33;;
75005;SDS011;63553;51.814;4.600;2024-02-14T11:17:41;2.53;;;1.40;;
75005;SDS011;63553;51.814;4.600;2024-02-14T11:22:50;1.20;;;1.20;;
75005;SDS011;63553;51.814;4.600;2024-02-14T11:25:21;1.60;;;1.50;;
75005;SDS011;63553;51.814;4.600;2024-02-14T11:27:48;1.67;;;1.48;;
75005;SDS011;63553;51.814;4.600;2024-02-14T11:30:14;1.70;;;1.38;;
75005;SDS011;63553;51.814;4.600;2024-02-14T11:32:40;1.50;;;1.40;;
75005;SDS011;63553;51.814;4.600;2024-02-14T11:35:11;1.50;;;1.40;;
75005;SDS011;63553;51.814;4.600;2024-02-14T11:37:37;1.60;;;1.50;;
75005;SDS011;63553;51.814;4.600;2024-02-14T11:40:03;1.30;;;1.30;;
75005;SDS011;63553;51.814;4.600;2024-02-14T11:42:29;1.38;;;1.30;;
75005;SDS011;63553;51.814;4.600;2024-02-14T11:44:56;2.15;;;1.42;;
75005;SDS011;63553;51.814;4.600;2024-02-14T11:47:22;1.45;;;1.42;;
75005;SDS011;63553;51.814;4.600;2024-02-14T11:49:47;2.72;;;1.50;;
75005;SDS011;63553;51.814;4.600;2024-02-14T11:52:13;1.42;;;1.40;;
75005;SDS011;63553;51.814;4.600;2024-02-14T11:54:39;1.60;;;1.50;;
75005;SDS011;63553;51.814;4.600;2024-02-14T11:57:05;1.20;;;1.20;;
75005;SDS011;63553;51.814;4.600;2024-02-14T11:59:33;2.00;;;1.38;;
75005;SDS011;63553;51.814;4.600;2024-02-14T12:01:59;1.30;;;1.20;;
75005;SDS011;63553;51.814;4.600;2024-02-14T12:04:24;1.30;;;1.30;;
75005;SDS011;63553;51.814;4.600;2024-02-14T12:06:50;1.60;;;1.50;;
75005;SDS011;63553;51.814;4.600;2024-02-14T12:09:16;1.30;;;1.20;;
75005;SDS011;63553;51.814;4.600;2024-02-14T12:11:41;1.10;;;1.10;;
75005;SDS011;63553;51.814;4.600;2024-02-14T12:14:11;1.25;;;1.20;;
75005;SDS011;63553;51.814;4.600;2024-02-14T12:16:36;2.25;;;1.45;;
75005;SDS011;63553;51.814;4.600;2024-02-14T12:19:05;1.20;;;1.20;;
75005;SDS011;63553;51.814;4.600;2024-02-14T12:21:34;1.20;;;1.20;;
75005;SDS011;63553;51.814;4.600;2024-02-14T12:24:00;1.50;;;1.40;;
75005;SDS011;63553;51.814;4.600;2024-02-14T12:26:25;1.30;;;1.30;;
75005;SDS011;63553;51.814;4.600;2024-02-14T12:28:51;1.52;;;1.42;;
75005;SDS011;63553;51.814;4.600;2024-02-14T12:31:23;1.40;;;1.30;;
75005;SDS011;63553;51.814;4.600;2024-02-14T12:33:49;1.30;;;1.30;;
75005;SDS011;63553;51.814;4.600;2024-02-14T12:36:17;1.92;;;1.40;;
75005;SDS011;63553;51.814;4.600;2024-02-14T12:38:43;1.30;;;1.30;;
75005;SDS011;63553;51.814;4.600;2024-02-14T12:41:09;1.23;;;1.23;;
75005;SDS011;63553;51.814;4.600;2024-02-14T12:43:35;1.40;;;1.30;;
75005;SDS011;63553;51.814;4.600;2024-02-14T12:46:00;1.50;;;1.40;;
75005;SDS011;63553;51.814;4.600;2024-02-14T12:48:26;1.30;;;1.30;;
75005;SDS011;63553;51.814;4.600;2024-02-14T12:50:51;1.98;;;1.40;;
75005;SDS011;63553;51.814;4.600;2024-02-14T12:53:17;1.65;;;1.38;;
75005;SDS011;63553;51.814;4.600;2024-02-14T12:55:42;1.23;;;1.20;;
75005;SDS011;63553;51.814;4.600;2024-02-14T12:58:08;1.50;;;1.10;;
75005;SDS011;63553;51.814;4.600;2024-02-14T13:00:35;1.25;;;1.25;;
75005;SDS011;63553;51.814;4.600;2024-02-14T13:03:00;1.30;;;1.30;;
75005;SDS011;63553;51.814;4.600;2024-02-14T13:05:26;1.45;;;1.40;;
75005;SDS011;63553;51.814;4.600;2024-02-14T13:07:52;1.25;;;1.17;;
75005;SDS011;63553;51.814;4.600;2024-02-14T13:10:17;1.10;;;1.10;;
75005;SDS011;63553;51.814;4.600;2024-02-14T13:12:43;1.10;;;1.10;;
75005;SDS011;63553;51.814;4.600;2024-02-14T13:15:10;1.30;;;1.20;;
75005;SDS011;63553;51.814;4.600;2024-02-14T13:17:36;1.35;;;1.20;;
75005;SDS011;63553;51.814;4.600;2024-02-14T13:20:01;1.20;;;1.20;;
75005;SDS011;63553;51.814;4.600;2024-02-14T13:22:27;1.30;;;1.20;;
75005;SDS011;63553;51.814;4.600;2024-02-14T13:24:52;2.25;;;1.27;;
75005;SDS011;63553;51.814;4.600;2024-02-14T13:27:18;1.30;;;1.20;;
75005;SDS011;63553;51.814;4.600;2024-02-14T13:29:46;1.40;;;1.30;;
75005;SDS011;63553;51.814;4.600;2024-02-14T13:32:12;1.20;;;1.20;;
75005;SDS011;63553;51.814;4.600;2024-02-14T13:34:38;1.25;;;1.20;;
75005;SDS011;63553;51.814;4.600;2024-02-14T13:37:03;1.30;;;1.30;;
75005;SDS011;63553;51.814;4.600;2024-02-14T13:39:29;1.13;;;1.13;;
75005;SDS011;63553;51.814;4.600;2024-02-14T13:41:54;1.50;;;1.40;;
75005;SDS011;63553;51.814;4.600;2024-02-14T13:44:23;1.27;;;1.20;;
75005;SDS011;63553;51.814;4.600;2024-02-14T13:46:49;0.98;;;0.98;;
75005;SDS011;63553;51.814;4.600;2024-02-14T13:49:15;1.20;;;1.20;;
75005;SDS011;63553;51.814;4.600;2024-02-14T13:51:46;1.35;;;1.27;;
75005;SDS011;63553;51.814;4.600;2024-02-14T13:54:12;1.30;;;1.20;;
75005;SDS011;63553;51.814;4.600;2024-02-14T13:56:37;1.40;;;1.27;;
75005;SDS011;63553;51.814;4.600;2024-02-14T13:59:03;1.10;;;1.10;;
75005;SDS011;63553;51.814;4.600;2024-02-14T14:01:28;1.23;;;1.10;;
75005;SDS011;63553;51.814;4.600;2024-02-14T14:03:53;1.27;;;1.20;;
75005;SDS011;63553;51.814;4.600;2024-02-14T14:06:20;1.30;;;1.20;;
75005;SDS011;63553;51.814;4.600;2024-02-14T14:08:49;1.13;;;1.10;;
75005;SDS011;63553;51.814;4.600;2024-02-14T14:11:17;1.00;;;1.00;;
75005;SDS011;63553;51.814;4.600;2024-02-14T14:13:42;1.23;;;1.23;;
75005;SDS011;63553;51.814;4.600;2024-02-14T14:16:08;0.93;;;0.93;;
75005;SDS011;63553;51.814;4.600;2024-02-14T14:18:34;1.10;;;1.10;;
75005;SDS011;63553;51.814;4.600;2024-02-14T14:21:00;1.40;;;1.30;;
75005;SDS011;63553;51.814;4.600;2024-02-14T14:23:25;1.00;;;1.00;;
75005;SDS011;63553;51.814;4.600;2024-02-14T14:25:50;1.05;;;1.05;;
75005;SDS011;63553;51.814;4.600;2024-02-14T14:28:16;1.05;;;1.05;;
75005;SDS011;63553;51.814;4.600;2024-02-14T14:30:42;0.98;;;0.98;;
75005;SDS011;63553;51.814;4.600;2024-02-14T14:33:08;1.33;;;1.23;;
75005;SDS011;63553;51.814;4.600;2024-02-14T14:35:33;1.30;;;1.00;;
75005;SDS011;63553;51.814;4.600;2024-02-14T14:38:01;1.48;;;1.10;;
75005;SDS011;63553;51.814;4.600;2024-02-14T14:40:27;1.00;;;1.00;;
75005;SDS011;63553;51.814;4.600;2024-02-14T14:42:53;0.85;;;0.85;;
75005;SDS011;63553;51.814;4.600;2024-02-14T14:45:18;0.82;;;0.82;;
75005;SDS011;63553;51.814;4.600;2024-02-14T14:47:44;0.80;;;0.80;;
75005;SDS011;63553;51.814;4.600;2024-02-14T14:50:10;1.10;;;1.10;;
75005;SDS011;63553;51.814;4.600;2024-02-14T14:52:37;1.13;;;1.02;;